Schedule Details


Flight Number: CTN418
Departure: Cilipi (LDDU) at 07:25
Arrival: Frankfurt/main (EDDF) at 09:30
Route: AMUGO UL611 UVODI UL862 SABAD DCT PIKIT DCT SUBEN UQ162 PSA

Weather Information
LDDU 251730Z 03015KT 320V080 CAVOK 30/12 Q1015 NOSIG
EDDF 251720Z 23004KT 200V290 9999 FEW070CB 30/14 Q1018 NOSIG
Schedule Frequency

Route Map